Time;durP1;ratioP1;P1;durP2;ratioP2;P2;SDS_P1;SDS_P2;PMS_P1;PMS_P2;Temp;Humidity;BMP_temperature;BMP_pressure;BME280_temperature;BME280_humidity;BME280_pressure;Samples;Min_cycle;Max_cycle;Signal;HPM_P1;HPM_P2
2023/08/28 00:01:47;;;;;;;9.68;7.60;;;;;;;;;;6249440;28;20061;-75
2023/08/28 00:04:49;;;;;;;10.05;7.88;;;;;;;;;;6250816;28;20045;-76
2023/08/28 00:07:50;;;;;;;9.90;7.63;;;;;;;;;;6246388;28;20050;-75
2023/08/28 00:10:53;;;;;;;10.35;7.43;;;;;;;;;;6250400;28;20112;-76
2023/08/28 00:13:54;;;;;;;8.43;6.75;;;;;;;;;;6252569;28;20082;-76
2023/08/28 00:16:57;;;;;;;8.65;6.93;;;;;;;;;;6250009;28;20337;-76
2023/08/28 00:19:59;;;;;;;7.70;6.65;;;;;;;;;;6249116;28;20064;-78
2023/08/28 00:23:01;;;;;;;10.85;6.97;;;;;;;;;;6251746;28;20057;-77
2023/08/28 00:26:03;;;;;;;9.60;7.20;;;;;;;;;;6250801;28;20388;-75
2023/08/28 00:29:04;;;;;;;8.18;6.20;;;;;;;;;;6251655;28;20060;-75
2023/08/28 00:32:07;;;;;;;11.18;6.13;;;;;;;;;;6248599;28;20053;-78
2023/08/28 00:35:09;;;;;;;8.07;5.55;;;;;;;;;;6251117;28;20061;-78
2023/08/28 00:38:11;;;;;;;7.47;5.68;;;;;;;;;;6247967;28;20079;-75
2023/08/28 00:41:13;;;;;;;7.65;5.60;;;;;;;;;;6252427;28;20057;-75
2023/08/28 00:44:15;;;;;;;5.70;5.05;;;;;;;;;;6248838;28;20277;-76
2023/08/28 00:47:18;;;;;;;8.70;5.47;;;;;;;;;;6250563;28;20069;-76
2023/08/28 00:50:20;;;;;;;8.20;6.28;;;;;;;;;;6248871;28;20061;-77
2023/08/28 00:53:23;;;;;;;7.38;5.22;;;;;;;;;;6252238;28;20091;-76
2023/08/28 00:56:25;;;;;;;6.43;5.03;;;;;;;;;;6250528;28;20359;-75
2023/08/28 00:59:27;;;;;;;8.15;5.65;;;;;;;;;;6246733;28;20058;-76
2023/08/28 01:02:30;;;;;;;9.15;5.72;;;;;;;;;;6248481;28;20314;-76
2023/08/28 01:05:39;;;;;;;6.93;4.80;;;;;;;;;;6248708;28;20080;-75
2023/08/28 01:08:46;;;;;;;5.47;4.57;;;;;;;;;;6253266;28;20107;-75
2023/08/28 01:11:52;;;;;;;6.00;5.22;;;;;;;;;;6249851;28;20056;-75
2023/08/28 01:14:59;;;;;;;8.20;5.55;;;;;;;;;;6247059;28;20049;-76
2023/08/28 01:18:04;;;;;;;7.10;5.00;;;;;;;;;;6247288;28;20053;-78
2023/08/28 01:21:06;;;;;;;7.80;5.53;;;;;;;;;;6233605;28;20053;-76
2023/08/28 01:24:10;;;;;;;5.93;5.32;;;;;;;;;;6224270;28;20115;-75
2023/08/28 01:27:13;;;;;;;6.88;5.38;;;;;;;;;;6224553;28;21274;-75
2023/08/28 01:30:16;;;;;;;6.75;5.45;;;;;;;;;;6225425;28;20349;-76
2023/08/28 01:33:18;;;;;;;7.07;5.40;;;;;;;;;;6233418;28;20352;-75
2023/08/28 01:36:24;;;;;;;8.60;6.10;;;;;;;;;;6245269;28;20045;-76
2023/08/28 01:39:32;;;;;;;7.93;6.45;;;;;;;;;;6246754;28;20045;-75
2023/08/28 01:42:35;;;;;;;7.53;6.28;;;;;;;;;;6249900;28;20068;-75
2023/08/28 01:45:38;;;;;;;8.65;5.75;;;;;;;;;;6252608;28;20053;-76
2023/08/28 01:48:44;;;;;;;11.57;7.10;;;;;;;;;;6245871;28;20058;-77
2023/08/28 01:51:46;;;;;;;10.32;7.50;;;;;;;;;;6246556;28;20062;-75
2023/08/28 01:54:47;;;;;;;10.93;7.85;;;;;;;;;;6249206;28;20053;-78
2023/08/28 01:57:50;;;;;;;10.38;8.32;;;;;;;;;;6248300;28;20054;-77
2023/08/28 02:00:52;;;;;;;10.10;8.60;;;;;;;;;;6241985;28;20046;-75
2023/08/28 02:03:54;;;;;;;11.38;9.38;;;;;;;;;;6246168;28;20076;-76
2023/08/28 02:06:56;;;;;;;12.18;9.15;;;;;;;;;;6247250;28;20055;-76
2023/08/28 02:09:57;;;;;;;13.82;10.55;;;;;;;;;;6247305;28;20057;-78
2023/08/28 02:13:00;;;;;;;12.25;10.27;;;;;;;;;;6250389;28;20055;-76
2023/08/28 02:16:03;;;;;;;12.30;10.45;;;;;;;;;;6249400;28;20068;-75
2023/08/28 02:19:05;;;;;;;13.75;10.95;;;;;;;;;;6246304;28;20096;-75
2023/08/28 02:22:07;;;;;;;14.07;10.35;;;;;;;;;;6244868;28;20058;-75
2023/08/28 02:25:09;;;;;;;13.43;10.30;;;;;;;;;;6245997;28;20057;-76
2023/08/28 02:28:12;;;;;;;13.02;10.25;;;;;;;;;;6249452;28;20059;-75
2023/08/28 02:31:14;;;;;;;14.68;9.95;;;;;;;;;;6245759;28;20087;-74
2023/08/28 02:34:16;;;;;;;13.82;10.60;;;;;;;;;;6243150;28;20705;-75
2023/08/28 02:37:17;;;;;;;11.40;9.88;;;;;;;;;;6247198;28;20138;-75
2023/08/28 02:40:19;;;;;;;12.20;9.32;;;;;;;;;;6246551;28;20342;-76
2023/08/28 02:43:22;;;;;;;12.27;10.10;;;;;;;;;;6245577;28;20273;-78
2023/08/28 02:46:24;;;;;;;12.38;10.10;;;;;;;;;;6248321;28;20061;-75
2023/08/28 02:49:25;;;;;;;12.23;9.75;;;;;;;;;;6248386;28;20099;-75
2023/08/28 02:52:27;;;;;;;14.13;10.85;;;;;;;;;;6244430;28;20053;-74
2023/08/28 02:55:31;;;;;;;14.32;10.93;;;;;;;;;;6241807;28;20119;-75
2023/08/28 02:58:33;;;;;;;;;;;;;;;;;;6245549;28;20079;-74
2023/08/28 03:01:36;;;;;;;17.85;12.00;;;;;;;;;;6251204;28;19940;-76
2023/08/28 03:04:38;;;;;;;15.63;11.98;;;;;;;;;;6244757;28;20053;-74
2023/08/28 03:07:39;;;;;;;16.20;12.60;;;;;;;;;;6246255;28;20051;-75
2023/08/28 03:10:41;;;;;;;15.27;11.63;;;;;;;;;;6246859;28;20045;-74
2023/08/28 03:13:44;;;;;;;14.82;11.93;;;;;;;;;;6244115;28;20226;-74
2023/08/28 03:16:46;;;;;;;15.63;11.40;;;;;;;;;;6247446;28;20081;-74
2023/08/28 03:19:48;;;;;;;16.17;11.35;;;;;;;;;;6246881;28;20249;-75
2023/08/28 03:22:49;;;;;;;14.23;11.13;;;;;;;;;;6244468;28;20338;-74
2023/08/28 03:25:51;;;;;;;16.52;11.43;;;;;;;;;;6245243;28;20139;-74
2023/08/28 03:28:54;;;;;;;17.40;11.93;;;;;;;;;;6244848;28;20172;-75
2023/08/28 03:31:56;;;;;;;14.27;11.55;;;;;;;;;;6245981;28;20050;-75
2023/08/28 03:34:58;;;;;;;15.32;11.70;;;;;;;;;;6247465;28;20053;-75
2023/08/28 03:37:59;;;;;;;14.70;11.52;;;;;;;;;;6248418;28;20061;-74
2023/08/28 03:41:02;;;;;;;14.63;12.45;;;;;;;;;;6246146;28;20046;-75
2023/08/28 03:44:05;;;;;;;13.65;11.10;;;;;;;;;;6244864;28;20045;-74
2023/08/28 03:47:07;;;;;;;14.15;12.07;;;;;;;;;;6243310;28;20103;-77
2023/08/28 03:50:09;;;;;;;14.98;12.40;;;;;;;;;;6245207;28;20067;-75
2023/08/28 03:53:10;;;;;;;13.82;11.75;;;;;;;;;;6238462;28;20053;-76
2023/08/28 03:56:12;;;;;;;17.38;13.05;;;;;;;;;;6239941;28;20053;-74
2023/08/28 03:59:15;;;;;;;18.48;13.00;;;;;;;;;;6222116;28;20048;-75
2023/08/28 04:02:17;;;;;;;16.65;12.40;;;;;;;;;;6223129;28;20166;-75
2023/08/28 04:05:19;;;;;;;17.63;13.20;;;;;;;;;;6225735;28;20124;-75
2023/08/28 04:08:21;;;;;;;17.77;13.77;;;;;;;;;;6221803;28;20062;-76
2023/08/28 04:11:22;;;;;;;16.35;13.52;;;;;;;;;;6224972;28;20061;-75
2023/08/28 04:14:26;;;;;;;16.73;13.18;;;;;;;;;;6221019;28;20129;-76
2023/08/28 04:17:27;;;;;;;17.67;13.20;;;;;;;;;;6224712;28;20061;-78
2023/08/28 04:20:30;;;;;;;19.17;13.32;;;;;;;;;;6224338;28;20053;-78
2023/08/28 04:23:32;;;;;;;16.25;12.95;;;;;;;;;;6224862;28;20131;-75
2023/08/28 04:26:33;;;;;;;16.50;13.70;;;;;;;;;;6230461;28;20050;-76
2023/08/28 04:29:36;;;;;;;16.48;12.63;;;;;;;;;;6250674;28;20052;-75
2023/08/28 04:32:38;;;;;;;16.52;11.80;;;;;;;;;;6247166;28;20052;-74
2023/08/28 04:35:40;;;;;;;16.73;12.48;;;;;;;;;;6248176;28;20330;-75
2023/08/28 04:38:42;;;;;;;15.60;11.63;;;;;;;;;;6251733;28;20321;-76
2023/08/28 04:41:43;;;;;;;14.95;11.93;;;;;;;;;;6251177;28;20245;-76
2023/08/28 04:44:46;;;;;;;14.80;11.75;;;;;;;;;;6251477;28;20353;-73
2023/08/28 04:47:48;;;;;;;14.23;11.57;;;;;;;;;;6246907;28;20068;-76
2023/08/28 04:50:50;;;;;;;12.63;11.32;;;;;;;;;;6248310;28;20038;-76
2023/08/28 04:53:51;;;;;;;13.30;11.57;;;;;;;;;;6248788;28;20400;-75
2023/08/28 04:56:54;;;;;;;17.38;11.98;;;;;;;;;;6248541;28;20878;-77
2023/08/28 04:59:57;;;;;;;13.45;10.75;;;;;;;;;;6248605;28;20049;-76
2023/08/28 05:02:58;;;;;;;14.27;10.55;;;;;;;;;;6250293;28;20071;-75
2023/08/28 05:06:01;;;;;;;13.68;10.85;;;;;;;;;;6249462;28;20395;-80
2023/08/28 05:09:03;;;;;;;15.27;9.90;;;;;;;;;;6249269;28;20329;-77
2023/08/28 05:12:05;;;;;;;13.00;10.25;;;;;;;;;;6247318;28;20053;-78
2023/08/28 05:15:09;;;;;;;14.48;10.38;;;;;;;;;;6251570;28;20067;-80
2023/08/28 05:18:11;;;;;;;10.40;9.27;;;;;;;;;;6248083;28;20212;-79
2023/08/28 05:21:13;;;;;;;11.85;9.25;;;;;;;;;;6249581;28;20049;-80
2023/08/28 05:24:15;;;;;;;11.88;9.10;;;;;;;;;;6246888;28;20258;-79
2023/08/28 05:27:17;;;;;;;15.70;8.57;;;;;;;;;;6238284;28;20054;-79
2023/08/28 05:30:20;;;;;;;11.25;9.35;;;;;;;;;;6242383;28;20084;-79
2023/08/28 05:33:21;;;;;;;11.55;8.70;;;;;;;;;;6224743;28;20282;-82
2023/08/28 05:36:23;;;;;;;10.07;8.65;;;;;;;;;;6226121;28;20050;-79
2023/08/28 05:39:25;;;;;;;10.52;8.48;;;;;;;;;;6225409;28;20053;-79
2023/08/28 05:42:27;;;;;;;13.15;9.40;;;;;;;;;;6221421;28;20110;-79
2023/08/28 05:45:30;;;;;;;10.77;8.95;;;;;;;;;;6221080;28;20053;-79
2023/08/28 05:48:32;;;;;;;14.52;9.85;;;;;;;;;;6220032;28;20056;-78
2023/08/28 05:51:34;;;;;;;13.63;9.00;;;;;;;;;;6224563;28;20226;-78
2023/08/28 05:54:36;;;;;;;12.32;9.30;;;;;;;;;;6220737;28;20062;-77
2023/08/28 05:57:38;;;;;;;12.68;9.40;;;;;;;;;;6223596;28;20377;-78
2023/08/28 06:00:41;;;;;;;11.40;8.95;;;;;;;;;;6220695;28;20057;-78
2023/08/28 06:03:42;;;;;;;13.57;9.20;;;;;;;;;;6222070;28;20103;-79
2023/08/28 06:06:44;;;;;;;11.35;9.18;;;;;;;;;;6223607;28;20054;-77
2023/08/28 06:09:46;;;;;;;14.43;9.82;;;;;;;;;;6220960;28;20061;-77
2023/08/28 06:12:48;;;;;;;10.80;8.98;;;;;;;;;;6221667;28;20066;-79
2023/08/28 06:15:51;;;;;;;13.52;9.75;;;;;;;;;;6221094;28;20322;-79
2023/08/28 06:18:58;;;;;;;16.92;10.10;;;;;;;;;;6224356;28;20061;-79
2023/08/28 06:22:04;;;;;;;11.55;9.57;;;;;;;;;;6222366;28;20338;-74
2023/08/28 06:25:08;;;;;;;12.02;9.75;;;;;;;;;;6229818;28;20273;-77
2023/08/28 06:28:09;;;;;;;;;;;;;;;;;;6241213;28;20087;-76
2023/08/28 06:31:12;;;;;;;12.02;8.98;;;;;;;;;;6220007;28;19932;-76
2023/08/28 06:34:14;;;;;;;12.07;8.82;;;;;;;;;;6219579;28;20058;-76
2023/08/28 06:37:16;;;;;;;11.27;8.70;;;;;;;;;;6222799;28;20058;-77
2023/08/28 06:40:18;;;;;;;12.30;9.27;;;;;;;;;;6225714;28;20132;-76
2023/08/28 06:43:19;;;;;;;16.05;9.68;;;;;;;;;;6219829;28;20365;-76
2023/08/28 06:46:23;;;;;;;10.15;8.95;;;;;;;;;;6222475;28;20153;-76
2023/08/28 06:49:24;;;;;;;;;;;;;;;;;;6223243;28;20054;-77
2023/08/28 06:52:26;;;;;;;10.88;9.13;;;;;;;;;;6221636;28;19932;-76
2023/08/28 06:55:28;;;;;;;10.80;8.98;;;;;;;;;;6222972;28;20358;-78
2023/08/28 06:58:30;;;;;;;14.70;9.38;;;;;;;;;;6221799;28;20092;-76
2023/08/28 07:01:33;;;;;;;13.95;9.80;;;;;;;;;;6223227;28;20053;-77
2023/08/28 07:04:35;;;;;;;12.32;9.18;;;;;;;;;;6221892;28;20046;-78
2023/08/28 07:07:37;;;;;;;11.35;9.60;;;;;;;;;;6222289;28;20105;-78
2023/08/28 07:10:39;;;;;;;11.77;8.93;;;;;;;;;;6223059;28;20069;-76
2023/08/28 07:13:41;;;;;;;12.60;8.70;;;;;;;;;;6220986;28;20258;-77
2023/08/28 07:16:44;;;;;;;11.48;9.00;;;;;;;;;;6221895;28;20037;-77
2023/08/28 07:19:45;;;;;;;12.48;9.05;;;;;;;;;;6223191;28;20713;-77
2023/08/28 07:22:47;;;;;;;10.98;8.75;;;;;;;;;;6221201;28;20053;-76
2023/08/28 07:25:49;;;;;;;12.25;9.15;;;;;;;;;;6221181;28;20046;-76
2023/08/28 07:28:51;;;;;;;12.23;7.95;;;;;;;;;;6223131;28;20338;-78
2023/08/28 07:31:54;;;;;;;13.23;7.68;;;;;;;;;;6222881;28;20334;-77
2023/08/28 07:34:56;;;;;;;7.75;6.72;;;;;;;;;;6223122;28;20042;-77
2023/08/28 07:37:58;;;;;;;7.90;6.80;;;;;;;;;;6227809;28;20054;-78
2023/08/28 07:40:59;;;;;;;11.48;7.28;;;;;;;;;;6235389;28;20081;-78
2023/08/28 07:44:01;;;;;;;7.88;6.57;;;;;;;;;;6251796;28;20051;-76
2023/08/28 07:47:05;;;;;;;13.13;7.00;;;;;;;;;;6250282;28;20057;-77
2023/08/28 07:50:07;;;;;;;9.40;7.00;;;;;;;;;;6252707;28;20088;-77
2023/08/28 07:53:09;;;;;;;9.38;6.78;;;;;;;;;;6250608;28;20065;-76
2023/08/28 07:56:11;;;;;;;11.25;6.82;;;;;;;;;;6247425;28;20081;-78
2023/08/28 07:59:13;;;;;;;10.65;6.43;;;;;;;;;;6251072;28;20295;-76
2023/08/28 08:02:16;;;;;;;7.35;5.97;;;;;;;;;;6250755;28;20057;-77
2023/08/28 08:05:18;;;;;;;13.77;7.05;;;;;;;;;;6250692;28;20049;-76
2023/08/28 08:08:20;;;;;;;9.52;6.40;;;;;;;;;;6250407;28;20795;-78
2023/08/28 08:11:22;;;;;;;11.98;6.70;;;;;;;;;;6253499;28;20113;-77
2023/08/28 08:14:24;;;;;;;10.80;6.25;;;;;;;;;;6246794;28;20089;-77
2023/08/28 08:17:27;;;;;;;9.45;6.70;;;;;;;;;;6250239;28;20053;-76
2023/08/28 08:20:32;;;;;;;11.88;6.93;;;;;;;;;;6255967;28;20337;-77
2023/08/28 08:23:33;;;;;;;11.88;6.85;;;;;;;;;;6249470;28;20050;-76
2023/08/28 08:26:35;;;;;;;11.43;6.30;;;;;;;;;;6246573;28;20053;-77
2023/08/28 08:29:37;;;;;;;10.63;6.85;;;;;;;;;;6249592;28;20041;-76
2023/08/28 08:32:43;;;;;;;14.30;7.60;;;;;;;;;;6249469;28;20064;-76
2023/08/28 08:35:45;;;;;;;10.45;7.22;;;;;;;;;;6248853;28;20090;-79
2023/08/28 08:38:47;;;;;;;11.05;6.72;;;;;;;;;;6250301;28;20246;-76
2023/08/28 08:41:49;;;;;;;5.95;2.90;;;;;;;;;;6250662;28;20051;-76
2023/08/28 08:44:51;;;;;;;4.32;2.33;;;;;;;;;;6251231;28;20046;-77
2023/08/28 08:47:55;;;;;;;4.13;1.75;;;;;;;;;;6251808;28;20096;-77
2023/08/28 08:51:04;;;;;;;4.00;1.70;;;;;;;;;;6250857;28;20057;-79
2023/08/28 08:54:07;;;;;;;2.75;1.35;;;;;;;;;;6250406;28;20088;-77
2023/08/28 08:57:11;;;;;;;3.88;1.40;;;;;;;;;;6237166;28;20049;-78
2023/08/28 09:00:15;;;;;;;3.90;1.63;;;;;;;;;;6224774;28;20240;-77
2023/08/28 09:03:19;;;;;;;2.80;1.27;;;;;;;;;;6226567;28;20105;-77
2023/08/28 09:06:21;;;;;;;4.05;1.30;;;;;;;;;;6225892;28;20057;-77
2023/08/28 09:09:23;;;;;;;2.05;1.50;;;;;;;;;;6225129;28;20387;-76
2023/08/28 09:12:25;;;;;;;2.85;1.50;;;;;;;;;;6224933;28;20164;-77
2023/08/28 09:15:27;;;;;;;2.03;1.50;;;;;;;;;;6228430;28;20064;-75
2023/08/28 09:18:30;;;;;;;3.58;1.23;;;;;;;;;;6223527;28;20147;-76
2023/08/28 09:21:35;;;;;;;4.15;1.10;;;;;;;;;;6221530;28;20235;-76
2023/08/28 09:24:37;;;;;;;1.98;1.10;;;;;;;;;;6225598;28;20073;-76
2023/08/28 09:27:41;;;;;;;2.60;1.40;;;;;;;;;;6225142;28;20054;-77
2023/08/28 09:30:45;;;;;;;3.10;1.30;;;;;;;;;;6221657;28;20050;-78
2023/08/28 09:33:48;;;;;;;2.70;1.73;;;;;;;;;;6223819;28;20057;-76
2023/08/28 09:36:49;;;;;;;4.63;1.90;;;;;;;;;;6232450;28;20242;-76
2023/08/28 09:39:55;;;;;;;5.43;2.15;;;;;;;;;;6251142;28;20341;-75
2023/08/28 09:42:57;;;;;;;4.53;1.77;;;;;;;;;;6250139;28;20053;-76
2023/08/28 09:46:00;;;;;;;4.82;1.50;;;;;;;;;;6251463;28;20058;-76
2023/08/28 09:49:03;;;;;;;5.03;1.63;;;;;;;;;;6248934;28;20061;-78
2023/08/28 09:52:06;;;;;;;2.50;1.63;;;;;;;;;;6248495;28;20049;-76
2023/08/28 09:55:08;;;;;;;2.97;1.90;;;;;;;;;;6252923;28;20049;-78
2023/08/28 09:58:12;;;;;;;2.30;1.17;;;;;;;;;;6244987;28;20045;-76
2023/08/28 10:01:14;;;;;;;2.33;1.33;;;;;;;;;;6248247;28;20064;-76
2023/08/28 10:04:20;;;;;;;3.47;1.00;;;;;;;;;;6247463;28;20049;-78
2023/08/28 10:07:24;;;;;;;1.88;0.98;;;;;;;;;;6249115;28;20056;-76
2023/08/28 10:10:26;;;;;;;2.33;1.17;;;;;;;;;;6245369;28;20334;-76
2023/08/28 10:13:29;;;;;;;1.27;0.80;;;;;;;;;;6247363;28;20058;-75
2023/08/28 10:16:32;;;;;;;1.93;0.83;;;;;;;;;;6246673;28;20053;-75
2023/08/28 10:19:39;;;;;;;3.10;0.85;;;;;;;;;;6249493;28;20063;-75
2023/08/28 10:22:42;;;;;;;1.77;0.77;;;;;;;;;;6247198;28;20120;-76
2023/08/28 10:25:45;;;;;;;1.50;0.80;;;;;;;;;;6246521;28;20211;-75
2023/08/28 10:28:46;;;;;;;1.60;0.60;;;;;;;;;;6250074;28;20060;-76
2023/08/28 10:31:48;;;;;;;1.60;0.70;;;;;;;;;;6248720;28;20068;-75
2023/08/28 10:34:52;;;;;;;2.75;0.70;;;;;;;;;;6244921;28;20263;-76
2023/08/28 10:37:55;;;;;;;1.60;0.63;;;;;;;;;;6249845;28;20053;-78
2023/08/28 10:40:58;;;;;;;2.10;0.90;;;;;;;;;;6246693;28;20242;-76
2023/08/28 10:44:01;;;;;;;1.60;0.57;;;;;;;;;;6250498;28;20072;-76
2023/08/28 10:47:02;;;;;;;1.77;0.60;;;;;;;;;;6248638;28;20049;-77
2023/08/28 10:50:07;;;;;;;1.45;0.60;;;;;;;;;;6247130;28;20061;-76
2023/08/28 10:53:13;;;;;;;1.00;0.60;;;;;;;;;;6242257;28;20058;-76
2023/08/28 10:56:15;;;;;;;1.02;0.43;;;;;;;;;;6246556;28;20338;-76
2023/08/28 10:59:24;;;;;;;1.23;0.80;;;;;;;;;;6245974;28;20064;-75
2023/08/28 11:02:26;;;;;;;5.78;0.55;;;;;;;;;;6246750;28;20064;-77
2023/08/28 11:05:29;;;;;;;1.80;0.40;;;;;;;;;;6247783;28;20063;-75
2023/08/28 11:08:35;;;;;;;1.00;0.55;;;;;;;;;;6242923;28;20060;-75
2023/08/28 11:11:36;;;;;;;0.68;0.35;;;;;;;;;;6250384;28;20081;-76
2023/08/28 11:14:39;;;;;;;0.95;0.52;;;;;;;;;;6247969;28;20274;-77
2023/08/28 11:17:41;;;;;;;1.58;0.60;;;;;;;;;;6252992;28;20044;-76
2023/08/28 11:20:47;;;;;;;0.80;0.50;;;;;;;;;;6251691;28;20350;-76
2023/08/28 11:23:50;;;;;;;1.30;0.50;;;;;;;;;;6250795;28;20088;-75
2023/08/28 11:26:52;;;;;;;;;;;;;;;;;;6254472;28;20109;-76
2023/08/28 11:29:54;;;;;;;1.35;0.50;;;;;;;;;;6251859;28;20223;-78
2023/08/28 11:32:56;;;;;;;3.53;1.20;;;;;;;;;;6250970;28;20049;-77
2023/08/28 11:36:01;;;;;;;1.70;0.43;;;;;;;;;;6251035;28;20362;-76
2023/08/28 11:39:03;;;;;;;1.08;0.50;;;;;;;;;;6252042;28;20239;-75
2023/08/28 11:42:06;;;;;;;4.67;1.40;;;;;;;;;;6251407;28;20095;-77
2023/08/28 11:45:08;;;;;;;2.20;0.80;;;;;;;;;;6238217;28;20246;-76
2023/08/28 11:48:10;;;;;;;3.08;0.50;;;;;;;;;;6228452;28;20247;-76
2023/08/28 11:51:13;;;;;;;2.65;0.93;;;;;;;;;;6227116;28;20065;-78
2023/08/28 11:54:15;;;;;;;2.95;0.60;;;;;;;;;;6227204;28;20346;-77
2023/08/28 11:57:17;;;;;;;8.00;1.40;;;;;;;;;;6226134;28;20352;-77
2023/08/28 12:00:20;;;;;;;4.95;1.05;;;;;;;;;;6226260;28;20137;-76
2023/08/28 12:03:22;;;;;;;2.87;0.60;;;;;;;;;;6227250;28;20263;-77
2023/08/28 12:06:25;;;;;;;2.75;1.05;;;;;;;;;;6225397;28;20066;-75
2023/08/28 12:09:27;;;;;;;2.70;0.77;;;;;;;;;;6226250;28;20080;-78
2023/08/28 12:12:29;;;;;;;2.45;0.90;;;;;;;;;;6225390;28;20255;-76
2023/08/28 12:15:32;;;;;;;8.30;1.40;;;;;;;;;;6225362;28;20334;-76
2023/08/28 12:18:43;;;;;;;6.55;1.02;;;;;;;;;;6225587;28;20104;-77
2023/08/28 12:21:46;;;;;;;3.75;0.88;;;;;;;;;;6227047;28;20049;-77
2023/08/28 12:24:50;;;;;;;9.52;2.58;;;;;;;;;;6227226;28;20052;-77
2023/08/28 12:27:52;;;;;;;0.63;0.38;;;;;;;;;;6229182;28;20050;-76
2023/08/28 12:30:54;;;;;;;1.52;0.47;;;;;;;;;;6226177;28;20061;-78
2023/08/28 12:33:56;;;;;;;1.58;0.63;;;;;;;;;;6225905;28;20361;-77
2023/08/28 12:37:05;;;;;;;1.00;0.35;;;;;;;;;;6232089;28;20053;-78
2023/08/28 12:40:12;;;;;;;0.50;0.35;;;;;;;;;;6251294;28;20053;-77
2023/08/28 12:43:16;;;;;;;0.80;0.32;;;;;;;;;;6248799;28;20065;-76
2023/08/28 12:46:17;;;;;;;1.20;0.40;;;;;;;;;;6252025;28;20080;-77
2023/08/28 12:49:19;;;;;;;1.00;0.55;;;;;;;;;;6246165;28;20056;-77
2023/08/28 12:52:22;;;;;;;1.20;0.40;;;;;;;;;;6250248;28;20057;-76
2023/08/28 12:55:24;;;;;;;0.60;0.40;;;;;;;;;;6249968;28;20056;-76
2023/08/28 12:58:26;;;;;;;1.50;0.60;;;;;;;;;;6252299;28;20144;-77
2023/08/28 13:01:27;;;;;;;3.40;1.23;;;;;;;;;;6247133;28;20350;-76
2023/08/28 13:04:30;;;;;;;1.50;0.40;;;;;;;;;;6245492;28;20333;-77
2023/08/28 13:07:33;;;;;;;1.85;0.60;;;;;;;;;;6251636;28;20057;-76
2023/08/28 13:10:35;;;;;;;0.57;0.30;;;;;;;;;;6251541;28;20056;-76
2023/08/28 13:13:36;;;;;;;1.55;0.88;;;;;;;;;;6247097;28;20116;-76
2023/08/28 13:16:38;;;;;;;0.32;0.28;;;;;;;;;;6249570;28;20061;-76
2023/08/28 13:19:40;;;;;;;0.40;0.20;;;;;;;;;;6249342;28;20061;-76
2023/08/28 13:22:43;;;;;;;0.40;0.20;;;;;;;;;;6248082;28;20085;-76
2023/08/28 13:25:45;;;;;;;0.15;0.00;;;;;;;;;;6246160;28;20054;-76
2023/08/28 13:28:46;;;;;;;2.10;0.20;;;;;;;;;;6247216;28;20053;-77
2023/08/28 13:31:48;;;;;;;0.43;0.20;;;;;;;;;;6249223;28;20053;-75
2023/08/28 13:34:50;;;;;;;2.10;0.30;;;;;;;;;;6244251;28;20061;-77
2023/08/28 13:37:53;;;;;;;0.35;0.15;;;;;;;;;;6250625;28;20057;-76
2023/08/28 13:40:54;;;;;;;4.55;0.20;;;;;;;;;;6248819;28;20058;-76
2023/08/28 13:43:56;;;;;;;0.47;0.10;;;;;;;;;;6248453;28;20057;-78
2023/08/28 13:46:58;;;;;;;1.50;0.20;;;;;;;;;;6248787;28;20045;-76
2023/08/28 13:49:59;;;;;;;0.77;0.20;;;;;;;;;;6249359;28;20125;-76
2023/08/28 13:53:02;;;;;;;0.95;0.20;;;;;;;;;;6246169;28;20348;-77
2023/08/28 13:56:04;;;;;;;0.40;0.20;;;;;;;;;;6245893;28;20242;-77
2023/08/28 13:59:06;;;;;;;1.77;0.20;;;;;;;;;;6245243;28;20120;-77
2023/08/28 14:02:08;;;;;;;0.57;0.28;;;;;;;;;;6250710;28;20265;-78
2023/08/28 14:05:12;;;;;;;0.60;0.20;;;;;;;;;;6247096;28;20076;-76
2023/08/28 14:08:15;;;;;;;0.35;0.20;;;;;;;;;;6248531;28;20060;-76
2023/08/28 14:11:17;;;;;;;0.40;0.15;;;;;;;;;;6246360;28;20330;-79
2023/08/28 14:14:19;;;;;;;0.43;0.30;;;;;;;;;;6248614;28;20227;-77
2023/08/28 14:17:20;;;;;;;0.75;0.40;;;;;;;;;;6247863;28;20049;-75
2023/08/28 14:20:22;;;;;;;0.47;0.20;;;;;;;;;;6249634;28;20327;-75
2023/08/28 14:23:26;;;;;;;0.50;0.40;;;;;;;;;;6249771;28;20348;-76
2023/08/28 14:26:29;;;;;;;0.80;0.20;;;;;;;;;;6246556;28;20092;-76
2023/08/28 14:29:30;;;;;;;1.55;0.40;;;;;;;;;;6248281;28;20053;-76
2023/08/28 14:32:32;;;;;;;0.93;0.25;;;;;;;;;;6248636;28;20061;-78
2023/08/28 14:35:34;;;;;;;1.08;0.30;;;;;;;;;;6250057;28;20049;-77
2023/08/28 14:38:37;;;;;;;0.55;0.28;;;;;;;;;;6246922;28;20106;-77
2023/08/28 14:41:39;;;;;;;0.43;0.17;;;;;;;;;;6251364;28;20045;-78
2023/08/28 14:44:40;;;;;;;1.95;0.25;;;;;;;;;;6246212;28;20123;-76
2023/08/28 14:47:42;;;;;;;3.22;0.40;;;;;;;;;;6247793;28;20052;-77
2023/08/28 14:50:44;;;;;;;0.50;0.30;;;;;;;;;;6245699;28;20045;-76
2023/08/28 14:53:47;;;;;;;0.70;0.38;;;;;;;;;;6249706;28;20045;-76
2023/08/28 14:56:51;;;;;;;0.77;0.13;;;;;;;;;;6272960;28;22843;-76
2023/08/28 14:59:53;;;;;;;0.68;0.30;;;;;;;;;;6272625;28;20053;-76
2023/08/28 15:02:55;;;;;;;1.30;0.40;;;;;;;;;;6272314;28;20049;-76
2023/08/28 15:05:57;;;;;;;0.20;0.20;;;;;;;;;;6273157;28;20051;-76
2023/08/28 15:09:00;;;;;;;1.33;0.32;;;;;;;;;;6275553;28;20053;-76
2023/08/28 15:12:02;;;;;;;;;;;;;;;;;;6270893;28;20329;-76
2023/08/28 15:15:04;;;;;;;1.10;0.32;;;;;;;;;;6270157;28;19927;-76
2023/08/28 15:18:06;;;;;;;0.40;0.30;;;;;;;;;;6271962;28;20103;-76
2023/08/28 15:21:10;;;;;;;0.80;0.20;;;;;;;;;;6269723;28;20241;-76
2023/08/28 15:24:13;;;;;;;0.40;0.20;;;;;;;;;;6271829;28;20110;-76
2023/08/28 15:27:16;;;;;;;1.20;0.40;;;;;;;;;;6271665;28;20045;-76
2023/08/28 15:30:18;;;;;;;2.53;0.20;;;;;;;;;;6271155;28;20125;-76
2023/08/28 15:33:20;;;;;;;0.47;0.20;;;;;;;;;;6272931;28;20044;-76
2023/08/28 15:36:22;;;;;;;1.20;0.40;;;;;;;;;;6271402;28;20052;-76
2023/08/28 15:39:25;;;;;;;0.80;0.50;;;;;;;;;;6269556;28;20087;-78
2023/08/28 15:42:27;;;;;;;2.05;0.50;;;;;;;;;;6272505;28;20257;-76
2023/08/28 15:45:28;;;;;;;0.90;0.50;;;;;;;;;;6272060;28;20294;-76
2023/08/28 15:48:30;;;;;;;1.15;0.38;;;;;;;;;;6273501;28;20041;-76
2023/08/28 15:51:32;;;;;;;0.45;0.22;;;;;;;;;;6268573;28;20256;-76
2023/08/28 15:54:35;;;;;;;2.67;0.40;;;;;;;;;;6269175;28;20063;-77
2023/08/28 15:57:37;;;;;;;0.25;0.20;;;;;;;;;;6275408;28;20063;-76
2023/08/28 16:00:39;;;;;;;1.10;0.40;;;;;;;;;;6277669;28;20202;-76
2023/08/28 16:03:41;;;;;;;1.10;0.30;;;;;;;;;;6276025;28;20276;-77
2023/08/28 16:06:42;;;;;;;1.30;0.52;;;;;;;;;;6274888;28;20060;-76
2023/08/28 16:09:45;;;;;;;0.68;0.40;;;;;;;;;;6276563;28;20102;-77
2023/08/28 16:12:47;;;;;;;1.50;0.60;;;;;;;;;;6278246;28;20077;-76
2023/08/28 16:15:50;;;;;;;0.93;0.52;;;;;;;;;;6275797;28;20124;-76
2023/08/28 16:18:51;;;;;;;1.40;1.00;;;;;;;;;;6275517;28;20083;-77
2023/08/28 16:21:53;;;;;;;1.25;0.50;;;;;;;;;;6275802;28;20041;-76
2023/08/28 16:24:56;;;;;;;1.30;0.70;;;;;;;;;;6271944;28;20107;-76
2023/08/28 16:27:58;;;;;;;1.13;0.63;;;;;;;;;;6275621;28;20126;-76
2023/08/28 16:31:00;;;;;;;0.80;0.47;;;;;;;;;;6276606;28;20056;-76
2023/08/28 16:34:02;;;;;;;1.67;0.70;;;;;;;;;;6278180;28;20060;-76
2023/08/28 16:37:04;;;;;;;2.25;0.70;;;;;;;;;;6279462;28;20064;-76
2023/08/28 16:40:08;;;;;;;2.38;0.65;;;;;;;;;;6277107;28;20241;-77
2023/08/28 16:43:10;;;;;;;1.35;0.70;;;;;;;;;;6275407;28;20332;-77
2023/08/28 16:46:12;;;;;;;1.42;0.65;;;;;;;;;;6273356;28;20049;-77
2023/08/28 16:49:13;;;;;;;1.05;0.60;;;;;;;;;;6276408;28;20052;-76
2023/08/28 16:52:15;;;;;;;1.60;0.60;;;;;;;;;;6273837;28;20135;-76
2023/08/28 16:55:18;;;;;;;3.75;0.60;;;;;;;;;;6270968;28;20049;-76
2023/08/28 16:58:20;;;;;;;1.67;0.73;;;;;;;;;;6275719;28;20061;-77
2023/08/28 17:01:22;;;;;;;1.63;0.88;;;;;;;;;;6272216;28;20104;-77
2023/08/28 17:04:24;;;;;;;2.15;0.68;;;;;;;;;;6275611;28;20060;-76
2023/08/28 17:07:26;;;;;;;1.52;0.70;;;;;;;;;;6276912;28;20423;-76
2023/08/28 17:10:30;;;;;;;2.20;0.70;;;;;;;;;;6277159;28;20139;-76
2023/08/28 17:13:31;;;;;;;;;;;;;;;;;;6274374;28;20060;-76
2023/08/28 17:16:33;;;;;;;3.15;0.55;;;;;;;;;;6273664;28;20243;-78
2023/08/28 17:19:35;;;;;;;1.83;0.70;;;;;;;;;;6274504;28;20049;-77
2023/08/28 17:22:36;;;;;;;1.42;0.70;;;;;;;;;;6273630;28;20403;-77
2023/08/28 17:25:39;;;;;;;1.00;0.50;;;;;;;;;;6276074;28;20103;-76
2023/08/28 17:28:41;;;;;;;1.45;0.45;;;;;;;;;;6271797;28;20044;-76
2023/08/28 17:31:43;;;;;;;1.88;0.73;;;;;;;;;;6274356;28;20109;-76
2023/08/28 17:34:45;;;;;;;2.15;0.50;;;;;;;;;;6271669;28;20049;-78
2023/08/28 17:37:47;;;;;;;2.67;0.75;;;;;;;;;;6277038;28;20052;-77
2023/08/28 17:40:50;;;;;;;1.75;0.55;;;;;;;;;;6275167;28;20068;-78
2023/08/28 17:43:52;;;;;;;1.13;0.50;;;;;;;;;;6270416;28;20434;-76
2023/08/28 17:46:54;;;;;;;0.85;0.40;;;;;;;;;;6270849;28;20108;-77
2023/08/28 17:49:56;;;;;;;0.88;0.43;;;;;;;;;;6269330;28;20411;-76
2023/08/28 17:52:58;;;;;;;0.80;0.50;;;;;;;;;;6274027;28;20061;-76
2023/08/28 17:56:01;;;;;;;1.83;0.50;;;;;;;;;;6274964;28;20045;-76
2023/08/28 17:59:04;;;;;;;2.25;0.82;;;;;;;;;;6275176;28;20048;-75
2023/08/28 18:02:06;;;;;;;2.13;0.80;;;;;;;;;;6271132;28;20056;-76
2023/08/28 18:05:09;;;;;;;1.90;0.77;;;;;;;;;;6262191;28;20057;-79
2023/08/28 18:08:10;;;;;;;4.00;1.00;;;;;;;;;;6247020;28;20057;-76